Time;durP1;ratioP1;P1;durP2;ratioP2;P2;SDS_P1;SDS_P2;PMS_P1;PMS_P2;Temp;Humidity;BMP_temperature;BMP_pressure;BME280_temperature;BME280_humidity;BME280_pressure;Samples;Min_cycle;Max_cycle;Signal;HPM_P1;HPM_P2
2022/03/18 00:01:14;;;;;;;8.20;3.38;;;;;;;;;;4951584;28;20050;-81
2022/03/18 00:03:40;;;;;;;9.20;3.28;;;;;;;;;;4944280;29;20047;-81
2022/03/18 00:06:07;;;;;;;9.52;3.22;;;;;;;;;;4950308;29;20043;-82
2022/03/18 00:08:32;;;;;;;10.52;3.58;;;;;;;;;;4951801;29;20051;-81
2022/03/18 00:10:58;;;;;;;8.48;3.08;;;;;;;;;;4948574;29;20122;-81
2022/03/18 00:13:24;;;;;;;7.32;3.58;;;;;;;;;;4953902;29;20056;-81
2022/03/18 00:15:50;;;;;;;4.88;3.03;;;;;;;;;;4949445;29;20536;-81
2022/03/18 00:18:16;;;;;;;8.32;3.65;;;;;;;;;;4974232;28;20051;-81
2022/03/18 00:20:42;;;;;;;9.05;3.72;;;;;;;;;;4945806;29;20062;-81
2022/03/18 00:23:08;;;;;;;8.15;3.53;;;;;;;;;;4953919;29;20056;-82
2022/03/18 00:25:34;;;;;;;7.65;3.70;;;;;;;;;;4940500;29;20050;-81
2022/03/18 00:28:00;;;;;;;10.45;4.18;;;;;;;;;;4953865;29;20054;-81
2022/03/18 00:30:26;;;;;;;11.65;3.88;;;;;;;;;;4939817;29;20087;-81
2022/03/18 00:32:53;;;;;;;8.57;3.60;;;;;;;;;;4955333;29;20051;-81
2022/03/18 00:35:19;;;;;;;9.65;3.55;;;;;;;;;;4956211;29;20043;-81
2022/03/18 00:37:45;;;;;;;10.18;3.67;;;;;;;;;;4931699;29;20043;-81
2022/03/18 00:40:11;;;;;;;11.00;4.32;;;;;;;;;;4956596;29;20370;-81
2022/03/18 00:42:37;;;;;;;10.10;4.30;;;;;;;;;;4947951;29;20040;-81
2022/03/18 00:45:04;;;;;;;12.43;4.38;;;;;;;;;;4949212;29;20334;-81
2022/03/18 00:52:59;;;;;;;12.18;4.93;;;;;;;;;;4954299;29;20051;-81
2022/03/18 00:55:25;;;;;;;9.10;4.85;;;;;;;;;;4955645;29;20039;-81
2022/03/18 00:57:51;;;;;;;9.93;4.97;;;;;;;;;;4955597;29;20776;-81
2022/03/18 01:00:17;;;;;;;10.35;4.55;;;;;;;;;;4955434;29;20094;-81
2022/03/18 01:02:43;;;;;;;10.80;5.07;;;;;;;;;;4955711;28;20042;-81
2022/03/18 01:05:09;;;;;;;12.90;5.30;;;;;;;;;;4954988;29;20032;-81
2022/03/18 01:07:35;;;;;;;11.73;5.05;;;;;;;;;;4950475;29;20047;-81
2022/03/18 01:10:01;;;;;;;12.10;5.35;;;;;;;;;;4953711;29;20054;-81
2022/03/18 01:12:27;;;;;;;12.10;4.95;;;;;;;;;;4952663;28;20126;-81
2022/03/18 01:14:53;;;;;;;13.82;4.97;;;;;;;;;;4954242;29;20094;-82
2022/03/18 01:17:19;;;;;;;11.52;5.10;;;;;;;;;;4954154;29;20079;-81
2022/03/18 01:19:46;;;;;;;11.93;6.65;;;;;;;;;;4954068;29;20066;-81
2022/03/18 01:22:12;;;;;;;11.57;6.03;;;;;;;;;;4949681;29;20494;-81
2022/03/18 01:24:38;;;;;;;11.93;5.78;;;;;;;;;;4954150;29;20054;-81
2022/03/18 01:27:04;;;;;;;9.50;6.10;;;;;;;;;;4949676;29;20039;-81
2022/03/18 01:29:30;;;;;;;14.45;6.60;;;;;;;;;;4951832;29;20057;-81
2022/03/18 01:31:56;;;;;;;15.55;6.10;;;;;;;;;;4950723;29;20535;-81
2022/03/18 01:34:22;;;;;;;11.57;6.05;;;;;;;;;;4952580;29;20053;-81
2022/03/18 01:36:49;;;;;;;9.82;6.28;;;;;;;;;;4957371;23;20063;-75
2022/03/18 01:39:15;;;;;;;13.05;6.57;;;;;;;;;;4949193;28;20481;-75
2022/03/18 01:41:41;;;;;;;10.30;5.82;;;;;;;;;;4956577;28;20061;-75
2022/03/18 01:44:11;;;;;;;13.98;6.47;;;;;;;;;;4955437;28;20047;-75
2022/03/18 01:46:37;;;;;;;15.00;6.72;;;;;;;;;;4950627;28;20523;-75
2022/03/18 01:49:04;;;;;;;12.43;6.50;;;;;;;;;;4953074;28;20151;-75
2022/03/18 01:51:30;;;;;;;14.77;7.00;;;;;;;;;;4955158;28;20053;-75
2022/03/18 01:57:00;;;;;;;9.82;7.00;;;;;;;;;;4882535;29;20191;-77
2022/03/18 01:59:27;;;;;;;11.80;6.78;;;;;;;;;;4877815;29;20076;-75
2022/03/18 02:01:53;;;;;;;11.95;6.95;;;;;;;;;;4928136;28;20222;-76
2022/03/18 02:04:19;;;;;;;12.23;6.82;;;;;;;;;;4938987;28;20039;-76
2022/03/18 02:06:45;;;;;;;13.82;7.53;;;;;;;;;;4954950;28;20073;-75
2022/03/18 02:09:11;;;;;;;12.85;7.35;;;;;;;;;;4955517;28;20503;-75
2022/03/18 02:11:38;;;;;;;16.10;8.15;;;;;;;;;;4938446;28;20042;-75
2022/03/18 02:14:04;;;;;;;14.57;7.53;;;;;;;;;;4953884;28;20050;-75
2022/03/18 02:16:30;;;;;;;11.48;6.90;;;;;;;;;;4951834;28;20047;-75
2022/03/18 02:18:55;;;;;;;15.00;7.57;;;;;;;;;;4936280;28;20566;-75
2022/03/18 02:21:21;;;;;;;13.13;6.88;;;;;;;;;;4951569;28;20167;-75
2022/03/18 02:23:47;;;;;;;12.70;7.45;;;;;;;;;;4954199;28;20050;-75
2022/03/18 02:26:15;;;;;;;12.77;7.60;;;;;;;;;;4939026;28;20393;-75
2022/03/18 02:28:41;;;;;;;13.60;7.15;;;;;;;;;;4937289;28;20042;-75
2022/03/18 02:31:07;;;;;;;14.15;7.65;;;;;;;;;;4953191;28;20073;-75
2022/03/18 02:33:33;;;;;;;15.98;7.55;;;;;;;;;;4956938;28;20074;-75
2022/03/18 02:35:59;;;;;;;17.30;7.80;;;;;;;;;;4955735;28;20062;-75
2022/03/18 02:38:25;;;;;;;14.30;6.88;;;;;;;;;;4955030;28;20121;-75
2022/03/18 02:40:51;;;;;;;14.80;7.47;;;;;;;;;;4944286;28;20047;-75
2022/03/18 02:43:17;;;;;;;15.40;7.72;;;;;;;;;;4930174;28;20043;-75
2022/03/18 02:45:43;;;;;;;16.05;7.20;;;;;;;;;;4946891;28;20046;-75
2022/03/18 02:48:09;;;;;;;11.85;7.97;;;;;;;;;;4940684;28;20401;-75
2022/03/18 02:50:35;;;;;;;12.60;7.82;;;;;;;;;;4942277;28;20039;-75
2022/03/18 02:53:01;;;;;;;14.77;7.78;;;;;;;;;;4941666;28;20676;-76
2022/03/18 02:55:27;;;;;;;10.52;7.15;;;;;;;;;;4944311;28;20198;-75
2022/03/18 02:57:53;;;;;;;13.13;8.02;;;;;;;;;;4940091;28;20127;-75
2022/03/18 03:00:25;;;;;;;12.38;7.00;;;;;;;;;;4949566;28;20050;-75
2022/03/18 03:02:51;;;;;;;14.45;7.38;;;;;;;;;;4944329;28;20080;-75
2022/03/18 03:08:01;;;;;;;14.15;7.82;;;;;;;;;;4954456;28;20105;-76
2022/03/18 03:10:29;;;;;;;13.75;7.53;;;;;;;;;;4954637;28;20034;-75
2022/03/18 03:12:56;;;;;;;14.70;7.93;;;;;;;;;;4954366;28;20102;-76
2022/03/18 03:15:22;;;;;;;14.00;7.20;;;;;;;;;;4932618;28;20146;-76
2022/03/18 03:17:47;;;;;;;12.73;7.20;;;;;;;;;;4939160;28;20130;-76
2022/03/18 03:20:15;;;;;;;12.60;7.72;;;;;;;;;;4953634;28;20048;-76
2022/03/18 03:22:41;;;;;;;13.13;6.90;;;;;;;;;;4938942;28;20066;-75
2022/03/18 03:25:07;;;;;;;13.85;7.45;;;;;;;;;;4945858;28;20473;-76
2022/03/18 03:27:33;;;;;;;12.90;7.70;;;;;;;;;;4938785;28;20046;-75
2022/03/18 03:29:59;;;;;;;16.42;7.97;;;;;;;;;;4954820;28;20056;-76
2022/03/18 03:32:25;;;;;;;13.30;8.02;;;;;;;;;;4938952;28;20078;-75
2022/03/18 03:34:51;;;;;;;17.10;8.93;;;;;;;;;;4943616;28;20043;-75
2022/03/18 03:37:17;;;;;;;16.08;8.23;;;;;;;;;;4943965;29;20138;-76
2022/03/18 03:39:43;;;;;;;15.18;8.77;;;;;;;;;;4944626;29;20706;-76
2022/03/18 03:42:09;;;;;;;18.30;8.73;;;;;;;;;;4940055;29;21129;-76
2022/03/18 03:44:35;;;;;;;14.45;8.23;;;;;;;;;;4947174;29;20050;-75
2022/03/18 03:47:01;;;;;;;12.48;8.00;;;;;;;;;;4951897;29;20106;-76
2022/03/18 03:49:27;;;;;;;14.35;8.90;;;;;;;;;;4955452;29;20047;-76
2022/03/18 03:51:53;;;;;;;14.48;9.13;;;;;;;;;;4954835;29;20520;-76
2022/03/18 03:54:19;;;;;;;13.07;8.63;;;;;;;;;;4955938;29;20047;-76
2022/03/18 03:56:45;;;;;;;12.40;8.25;;;;;;;;;;4938034;29;20457;-76
2022/03/18 03:59:11;;;;;;;14.25;9.35;;;;;;;;;;4933491;29;20039;-76
2022/03/18 04:01:38;;;;;;;11.40;8.77;;;;;;;;;;4955095;29;20070;-76
2022/03/18 04:04:04;;;;;;;17.88;10.43;;;;;;;;;;4952692;29;20103;-76
2022/03/18 04:06:31;;;;;;;13.98;8.73;;;;;;;;;;4942166;29;20043;-76
2022/03/18 04:08:57;;;;;;;14.70;8.40;;;;;;;;;;4941962;29;20043;-76
2022/03/18 04:11:22;;;;;;;11.00;8.32;;;;;;;;;;4950674;29;20170;-76
2022/03/18 04:13:48;;;;;;;16.23;9.30;;;;;;;;;;4953096;29;20054;-76
2022/03/18 04:16:15;;;;;;;15.38;9.32;;;;;;;;;;4954051;29;20135;-76
2022/03/18 04:18:41;;;;;;;15.60;9.63;;;;;;;;;;4947915;29;20050;-76
2022/03/18 04:21:07;;;;;;;15.63;8.73;;;;;;;;;;4935502;29;20867;-76
2022/03/18 04:23:33;;;;;;;14.18;8.65;;;;;;;;;;4951544;29;20118;-76
2022/03/18 04:25:59;;;;;;;15.07;9.77;;;;;;;;;;4951231;29;20045;-76
2022/03/18 04:28:25;;;;;;;15.45;9.05;;;;;;;;;;4948377;29;20054;-76
2022/03/18 04:30:51;;;;;;;15.18;8.95;;;;;;;;;;4948989;29;20077;-76
2022/03/18 04:33:17;;;;;;;15.25;9.27;;;;;;;;;;4951479;29;20043;-76
2022/03/18 04:35:44;;;;;;;16.10;9.25;;;;;;;;;;4952255;29;20055;-76
2022/03/18 04:38:10;;;;;;;15.73;8.77;;;;;;;;;;4948259;29;20556;-76
2022/03/18 04:40:36;;;;;;;18.23;9.00;;;;;;;;;;4947298;29;20133;-76
2022/03/18 04:43:02;;;;;;;12.98;9.35;;;;;;;;;;4935719;29;20077;-76
2022/03/18 04:45:28;;;;;;;13.80;8.95;;;;;;;;;;4952274;28;20458;-76
2022/03/18 04:47:54;;;;;;;13.00;8.85;;;;;;;;;;4950423;28;20138;-76
2022/03/18 04:50:21;;;;;;;12.98;8.57;;;;;;;;;;4950344;29;20124;-76
2022/03/18 04:52:46;;;;;;;13.43;8.95;;;;;;;;;;4951672;29;20055;-76
2022/03/18 04:55:13;;;;;;;13.98;8.95;;;;;;;;;;4951550;29;20058;-76
2022/03/18 04:57:39;;;;;;;15.40;9.75;;;;;;;;;;4951168;29;20039;-76
2022/03/18 05:00:05;;;;;;;14.57;9.50;;;;;;;;;;4950855;29;20073;-76
2022/03/18 05:02:31;;;;;;;16.30;9.93;;;;;;;;;;4946480;29;20146;-76
2022/03/18 05:04:57;;;;;;;13.63;9.18;;;;;;;;;;4950755;29;20185;-76
2022/03/18 05:07:24;;;;;;;15.77;9.10;;;;;;;;;;4949195;29;20042;-76
2022/03/18 05:09:51;;;;;;;15.48;10.13;;;;;;;;;;4935524;29;20044;-76
2022/03/18 05:12:17;;;;;;;13.60;9.70;;;;;;;;;;4961011;28;20047;-76
2022/03/18 05:14:43;;;;;;;14.43;10.07;;;;;;;;;;4960939;28;20070;-76
2022/03/18 05:17:10;;;;;;;15.93;10.07;;;;;;;;;;4956716;28;20451;-76
2022/03/18 05:19:37;;;;;;;18.15;10.43;;;;;;;;;;4950885;29;20055;-76
2022/03/18 05:22:03;;;;;;;14.68;10.13;;;;;;;;;;4949128;28;20042;-76
2022/03/18 05:24:29;;;;;;;18.27;10.82;;;;;;;;;;4947252;29;20043;-76
2022/03/18 05:26:56;;;;;;;17.60;10.13;;;;;;;;;;4949347;29;20157;-76
2022/03/18 05:29:22;;;;;;;13.77;10.40;;;;;;;;;;4949952;28;20449;-76
2022/03/18 05:31:48;;;;;;;18.60;10.90;;;;;;;;;;4952494;28;20057;-76
2022/03/18 05:34:14;;;;;;;19.63;10.90;;;;;;;;;;4949011;28;20130;-76
2022/03/18 05:36:43;;;;;;;15.82;10.10;;;;;;;;;;4956502;28;20047;-76
2022/03/18 05:39:10;;;;;;;14.88;9.88;;;;;;;;;;4933070;29;20102;-76
2022/03/18 05:41:37;;;;;;;14.88;10.63;;;;;;;;;;4932729;29;20067;-76
2022/03/18 05:44:03;;;;;;;23.85;11.52;;;;;;;;;;4932179;29;20047;-76
2022/03/18 05:46:29;;;;;;;17.90;10.20;;;;;;;;;;4946775;29;20475;-76
2022/03/18 05:48:55;;;;;;;14.15;10.63;;;;;;;;;;4949838;29;20043;-76
2022/03/18 05:51:21;;;;;;;19.77;10.00;;;;;;;;;;4928682;29;20505;-76
2022/03/18 05:53:47;;;;;;;18.08;9.32;;;;;;;;;;4937873;29;20065;-76
2022/03/18 05:58:59;;;;;;;15.18;8.93;;;;;;;;;;4959381;28;20087;-76
2022/03/18 06:01:25;;;;;;;14.45;10.07;;;;;;;;;;4934528;29;20035;-76
2022/03/18 06:03:51;;;;;;;11.93;9.00;;;;;;;;;;4935904;29;20047;-75
2022/03/18 06:06:17;;;;;;;15.00;9.07;;;;;;;;;;4948510;29;20031;-75
2022/03/18 06:14:12;;;;;;;16.63;10.32;;;;;;;;;;4937239;29;20059;-75
2022/03/18 06:16:39;;;;;;;12.27;9.32;;;;;;;;;;4943641;29;20043;-76
2022/03/18 06:19:05;;;;;;;15.93;10.15;;;;;;;;;;4951937;29;20477;-75
2022/03/18 06:21:31;;;;;;;25.98;9.77;;;;;;;;;;4951475;29;20102;-75
2022/03/18 06:23:56;;;;;;;15.55;9.38;;;;;;;;;;4949559;29;20526;-75
2022/03/18 06:26:22;;;;;;;16.20;9.90;;;;;;;;;;4952051;29;20035;-75
2022/03/18 06:28:49;;;;;;;12.60;8.95;;;;;;;;;;4951157;29;20094;-75
2022/03/18 06:31:15;;;;;;;18.73;9.95;;;;;;;;;;4952107;29;20067;-76
2022/03/18 06:33:44;;;;;;;14.85;9.05;;;;;;;;;;4935687;29;20086;-75
2022/03/18 06:36:11;;;;;;;27.70;10.60;;;;;;;;;;4953162;28;20056;-75
2022/03/18 06:38:37;;;;;;;14.38;9.20;;;;;;;;;;4951848;29;20359;-75
2022/03/18 06:41:03;;;;;;;13.48;8.52;;;;;;;;;;4935113;29;20078;-76
2022/03/18 06:43:29;;;;;;;13.80;8.70;;;;;;;;;;4935818;29;20044;-76
2022/03/18 06:45:55;;;;;;;12.85;8.70;;;;;;;;;;4952143;28;20522;-76
2022/03/18 06:48:21;;;;;;;15.57;8.30;;;;;;;;;;4935637;29;20050;-76
2022/03/18 06:50:47;;;;;;;10.93;8.02;;;;;;;;;;4951876;29;20054;-76
2022/03/18 06:53:13;;;;;;;12.43;7.97;;;;;;;;;;4935383;29;20043;-76
2022/03/18 06:55:39;;;;;;;13.15;8.43;;;;;;;;;;4951987;28;20042;-76
2022/03/18 06:58:05;;;;;;;11.55;7.72;;;;;;;;;;4950794;28;20125;-76
2022/03/18 07:00:31;;;;;;;10.45;7.82;;;;;;;;;;4950878;28;20043;-76
2022/03/18 07:02:57;;;;;;;12.70;7.35;;;;;;;;;;4934238;28;20050;-76
2022/03/18 07:05:23;;;;;;;11.07;7.60;;;;;;;;;;4950148;28;20429;-76
2022/03/18 07:07:49;;;;;;;11.85;7.72;;;;;;;;;;4957011;28;20039;-76
2022/03/18 07:10:16;;;;;;;13.30;8.25;;;;;;;;;;4950838;28;20051;-76
2022/03/18 07:12:42;;;;;;;10.65;7.85;;;;;;;;;;4951747;28;20047;-76
2022/03/18 07:15:08;;;;;;;10.65;7.85;;;;;;;;;;4952350;28;20057;-76
2022/03/18 07:20:19;;;;;;;13.82;8.35;;;;;;;;;;4945247;28;20130;-76
2022/03/18 07:22:45;;;;;;;12.25;8.63;;;;;;;;;;4944177;29;20043;-76
2022/03/18 07:25:11;;;;;;;12.15;8.00;;;;;;;;;;4958082;28;20083;-75
2022/03/18 07:27:37;;;;;;;13.15;8.95;;;;;;;;;;4941401;28;20050;-76
2022/03/18 07:30:04;;;;;;;11.00;8.82;;;;;;;;;;4954263;28;20091;-75
2022/03/18 07:32:30;;;;;;;15.65;9.73;;;;;;;;;;4960096;28;20385;-76
2022/03/18 07:34:56;;;;;;;15.90;9.38;;;;;;;;;;4950729;28;20134;-76
2022/03/18 07:37:22;;;;;;;13.00;10.23;;;;;;;;;;4949833;28;20047;-75
2022/03/18 07:39:48;;;;;;;13.77;9.85;;;;;;;;;;4926645;29;20052;-75
2022/03/18 07:42:14;;;;;;;21.05;10.63;;;;;;;;;;4943892;29;20050;-76
2022/03/18 07:44:40;;;;;;;15.23;10.95;;;;;;;;;;4940412;29;20036;-76
2022/03/18 07:47:06;;;;;;;14.25;9.40;;;;;;;;;;4945138;29;20055;-76
2022/03/18 07:49:32;;;;;;;13.45;10.75;;;;;;;;;;4949403;29;20686;-76
2022/03/18 07:51:58;;;;;;;14.77;10.20;;;;;;;;;;4950939;29;20070;-76
2022/03/18 07:54:24;;;;;;;14.50;10.95;;;;;;;;;;4949002;29;20046;-76
2022/03/18 07:56:51;;;;;;;11.88;9.85;;;;;;;;;;4950727;29;20079;-76
2022/03/18 07:59:17;;;;;;;15.63;11.88;;;;;;;;;;4934065;29;20053;-76
2022/03/18 08:01:43;;;;;;;14.13;11.10;;;;;;;;;;4916708;29;20131;-76
2022/03/18 08:04:12;;;;;;;15.82;10.40;;;;;;;;;;4942122;29;20150;-76
2022/03/18 08:06:38;;;;;;;13.32;11.48;;;;;;;;;;4935748;29;20772;-76
2022/03/18 08:09:05;;;;;;;15.68;11.35;;;;;;;;;;4941853;29;20043;-76
2022/03/18 08:11:31;;;;;;;16.30;11.68;;;;;;;;;;4937326;29;20043;-75
2022/03/18 08:13:57;;;;;;;17.23;10.40;;;;;;;;;;4949344;29;20078;-76
2022/03/18 08:16:23;;;;;;;14.70;10.13;;;;;;;;;;4950442;29;20075;-75
2022/03/18 08:18:49;;;;;;;17.10;11.82;;;;;;;;;;4949174;29;20035;-75
2022/03/18 08:21:15;;;;;;;21.88;12.05;;;;;;;;;;4951857;28;20043;-75
2022/03/18 08:23:41;;;;;;;16.50;12.65;;;;;;;;;;4945057;28;20062;-75
2022/03/18 08:26:07;;;;;;;19.60;12.20;;;;;;;;;;4951508;29;20043;-76
2022/03/18 08:28:33;;;;;;;35.15;13.05;;;;;;;;;;4952679;29;20047;-76
2022/03/18 08:30:59;;;;;;;21.23;12.13;;;;;;;;;;4954597;29;20047;-76
2022/03/18 08:33:26;;;;;;;16.23;12.27;;;;;;;;;;4953998;29;20516;-76
2022/03/18 08:35:52;;;;;;;19.10;10.85;;;;;;;;;;4954195;29;20106;-77
2022/03/18 08:38:18;;;;;;;15.68;11.85;;;;;;;;;;4952801;29;20047;-76
2022/03/18 08:40:44;;;;;;;20.40;12.35;;;;;;;;;;4924631;29;20098;-76
2022/03/18 08:43:10;;;;;;;19.23;11.57;;;;;;;;;;4954238;29;20050;-76
2022/03/18 08:45:36;;;;;;;17.90;10.85;;;;;;;;;;4937782;29;20760;-76
2022/03/18 08:48:03;;;;;;;18.35;10.85;;;;;;;;;;4945450;29;20051;-76
2022/03/18 08:50:28;;;;;;;19.45;11.85;;;;;;;;;;4946238;29;20426;-76
2022/03/18 08:52:56;;;;;;;14.30;11.02;;;;;;;;;;4942669;29;20054;-76
2022/03/18 08:55:22;;;;;;;17.60;10.80;;;;;;;;;;4943416;28;20051;-76
2022/03/18 08:57:48;;;;;;;18.10;11.32;;;;;;;;;;4952798;29;20051;-76
2022/03/18 09:00:15;;;;;;;18.70;11.02;;;;;;;;;;4954045;29;20090;-76
2022/03/18 09:02:42;;;;;;;23.67;11.70;;;;;;;;;;4936933;29;20043;-76
2022/03/18 09:05:08;;;;;;;18.38;11.25;;;;;;;;;;4946720;28;20493;-76
2022/03/18 09:07:35;;;;;;;18.52;10.68;;;;;;;;;;4930220;29;20521;-76
2022/03/18 09:10:02;;;;;;;17.13;10.05;;;;;;;;;;4943668;29;20460;-76
2022/03/18 09:12:28;;;;;;;17.38;10.13;;;;;;;;;;4950011;29;20105;-76
2022/03/18 09:14:54;;;;;;;18.75;10.68;;;;;;;;;;4931551;29;20039;-76
2022/03/18 09:17:20;;;;;;;15.90;10.68;;;;;;;;;;4934234;29;20047;-76
2022/03/18 09:19:46;;;;;;;19.02;10.27;;;;;;;;;;4943989;29;20062;-76
2022/03/18 09:22:16;;;;;;;20.33;9.65;;;;;;;;;;4946129;29;20473;-76
2022/03/18 09:24:42;;;;;;;13.05;8.52;;;;;;;;;;4947365;29;20126;-76
2022/03/18 09:27:09;;;;;;;15.80;8.80;;;;;;;;;;4933945;29;20043;-76
2022/03/18 09:29:35;;;;;;;18.50;9.10;;;;;;;;;;4950992;29;20134;-76
2022/03/18 09:32:02;;;;;;;15.73;8.98;;;;;;;;;;4933264;28;20035;-76
2022/03/18 09:34:27;;;;;;;16.30;9.05;;;;;;;;;;4949373;29;20039;-76
2022/03/18 09:36:56;;;;;;;16.73;7.95;;;;;;;;;;4946655;29;20066;-75
2022/03/18 09:39:23;;;;;;;15.38;9.18;;;;;;;;;;4949175;29;20047;-75
2022/03/18 09:41:49;;;;;;;13.57;8.85;;;;;;;;;;4936357;29;20044;-76
2022/03/18 09:44:15;;;;;;;17.13;9.82;;;;;;;;;;4945800;29;20545;-76
2022/03/18 09:46:41;;;;;;;17.23;9.35;;;;;;;;;;4946560;28;20043;-76
2022/03/18 09:49:11;;;;;;;18.95;10.85;;;;;;;;;;4945634;29;20078;-76
2022/03/18 09:51:42;;;;;;;15.25;9.93;;;;;;;;;;4935768;29;20039;-76
2022/03/18 09:54:09;;;;;;;17.20;10.10;;;;;;;;;;4950813;29;20043;-76
2022/03/18 09:56:35;;;;;;;13.80;8.80;;;;;;;;;;4946307;29;20039;-76
2022/03/18 09:59:01;;;;;;;21.85;10.27;;;;;;;;;;4950429;29;20043;-77
2022/03/18 10:01:27;;;;;;;17.77;9.25;;;;;;;;;;4951454;29;20043;-76
2022/03/18 10:03:53;;;;;;;16.90;9.20;;;;;;;;;;4946994;29;20046;-76
2022/03/18 10:06:27;;;;;;;14.18;9.70;;;;;;;;;;4947276;29;20043;-76
2022/03/18 10:08:53;;;;;;;18.00;10.63;;;;;;;;;;4943314;29;20046;-76
2022/03/18 10:11:21;;;;;;;20.15;10.75;;;;;;;;;;4932418;29;20047;-76
2022/03/18 10:13:51;;;;;;;15.77;10.13;;;;;;;;;;4946567;29;20138;-76
2022/03/18 10:16:22;;;;;;;18.95;11.23;;;;;;;;;;4949770;29;20130;-76
2022/03/18 10:18:49;;;;;;;19.60;10.80;;;;;;;;;;4932447;29;20062;-76
2022/03/18 10:21:15;;;;;;;18.05;9.30;;;;;;;;;;4951984;29;20043;-76
2022/03/18 10:23:41;;;;;;;17.15;9.52;;;;;;;;;;4934425;29;20043;-76
2022/03/18 10:26:07;;;;;;;19.02;10.02;;;;;;;;;;4950955;29;20031;-76
2022/03/18 10:28:40;;;;;;;17.35;10.25;;;;;;;;;;4929914;29;20043;-77
2022/03/18 10:31:14;;;;;;;19.13;10.48;;;;;;;;;;4963214;28;20131;-76
2022/03/18 10:39:28;;;;;;;16.42;9.75;;;;;;;;;;4949155;29;20070;-76
2022/03/18 10:41:54;;;;;;;21.80;9.18;;;;;;;;;;4950487;29;20101;-76
2022/03/18 10:44:20;;;;;;;17.63;10.10;;;;;;;;;;4949864;28;20039;-76
2022/03/18 10:46:48;;;;;;;17.65;9.93;;;;;;;;;;4935155;29;20047;-76
2022/03/18 10:49:14;;;;;;;16.42;9.18;;;;;;;;;;4935547;29;20097;-76
2022/03/18 10:51:40;;;;;;;15.82;9.18;;;;;;;;;;4948284;29;20086;-76
2022/03/18 10:54:06;;;;;;;17.88;8.85;;;;;;;;;;4944069;29;20175;-76
2022/03/18 10:56:51;;;;;;;17.77;9.32;;;;;;;;;;4933438;29;20043;-76
2022/03/18 10:59:17;;;;;;;16.08;8.30;;;;;;;;;;4946565;29;20046;-76
2022/03/18 11:01:45;;;;;;;14.25;8.98;;;;;;;;;;4951268;29;20047;-76
2022/03/18 11:04:11;;;;;;;12.73;8.25;;;;;;;;;;4942207;29;20078;-75
2022/03/18 11:06:38;;;;;;;11.27;7.82;;;;;;;;;;4933521;29;20039;-76
2022/03/18 11:09:04;;;;;;;15.50;9.02;;;;;;;;;;4949111;29;20102;-76
2022/03/18 11:11:31;;;;;;;15.73;9.05;;;;;;;;;;4951136;29;20445;-76
2022/03/18 11:14:02;;;;;;;15.88;8.70;;;;;;;;;;4949340;29;20043;-76
2022/03/18 11:16:30;;;;;;;13.48;8.00;;;;;;;;;;4964884;28;20035;-76
2022/03/18 11:18:57;;;;;;;12.30;6.63;;;;;;;;;;4950995;29;20129;-75
2022/03/18 11:21:35;;;;;;;15.00;8.73;;;;;;;;;;4934829;29;20035;-76
2022/03/18 11:24:03;;;;;;;14.13;8.25;;;;;;;;;;4938845;29;20067;-75
2022/03/18 11:26:29;;;;;;;14.63;7.80;;;;;;;;;;4944298;29;20039;-76
2022/03/18 11:29:19;;;;;;;13.70;7.20;;;;;;;;;;4950531;29;20105;-76
2022/03/18 11:32:05;;;;;;;18.98;8.32;;;;;;;;;;4948356;29;20126;-75
2022/03/18 11:34:31;;;;;;;15.85;8.50;;;;;;;;;;4928541;29;20040;-75
2022/03/18 11:37:09;;;;;;;16.42;8.10;;;;;;;;;;4943122;29;20065;-75
2022/03/18 11:39:35;;;;;;;13.27;7.60;;;;;;;;;;4911500;29;20052;-76
2022/03/18 11:42:07;;;;;;;12.93;6.95;;;;;;;;;;4931068;29;20071;-76
2022/03/18 11:44:33;;;;;;;;;;;;;;;;;;4931987;29;20054;-76
2022/03/18 11:47:18;;;;;;;11.23;6.40;;;;;;;;;;4930889;29;20043;-76
2022/03/18 11:49:44;;;;;;;13.55;6.80;;;;;;;;;;4925712;29;20044;-75
2022/03/18 11:52:10;;;;;;;14.70;7.70;;;;;;;;;;4924529;29;20123;-76
2022/03/18 11:54:49;;;;;;;13.15;6.88;;;;;;;;;;4929007;29;20163;-76
2022/03/18 11:57:29;;;;;;;15.27;7.82;;;;;;;;;;4933456;29;20051;-76
2022/03/18 11:59:57;;;;;;;11.32;6.10;;;;;;;;;;4933913;29;20043;-76
2022/03/18 12:02:32;;;;;;;11.00;5.90;;;;;;;;;;4924643;29;20055;-76
2022/03/18 12:04:58;;;;;;;12.73;5.85;;;;;;;;;;4933267;29;20123;-76
2022/03/18 12:07:45;;;;;;;10.63;5.35;;;;;;;;;;4935460;29;20474;-76
2022/03/18 12:10:13;;;;;;;25.80;6.70;;;;;;;;;;4929822;29;20577;-76
2022/03/18 12:12:44;;;;;;;15.68;6.85;;;;;;;;;;4927471;29;20502;-76
2022/03/18 12:15:12;;;;;;;12.35;5.95;;;;;;;;;;4935596;29;20377;-76
2022/03/18 12:17:42;;;;;;;10.27;4.35;;;;;;;;;;4924474;29;20058;-76
2022/03/18 12:20:09;;;;;;;12.63;4.90;;;;;;;;;;4915732;29;20054;-76
2022/03/18 12:22:39;;;;;;;11.80;5.72;;;;;;;;;;4930925;29;20536;-76
2022/03/18 12:25:06;;;;;;;8.90;4.90;;;;;;;;;;4934886;29;20058;-76
2022/03/18 12:27:36;;;;;;;10.70;5.05;;;;;;;;;;4929126;29;20079;-76
2022/03/18 12:30:03;;;;;;;11.55;5.50;;;;;;;;;;4935254;29;20054;-76
2022/03/18 12:32:29;;;;;;;14.02;6.60;;;;;;;;;;4918288;29;20058;-76
2022/03/18 12:34:56;;;;;;;15.38;6.30;;;;;;;;;;4933381;29;20130;-75
2022/03/18 12:37:22;;;;;;;9.75;4.15;;;;;;;;;;4923196;29;20506;-74
2022/03/18 12:40:08;;;;;;;8.07;4.50;;;;;;;;;;4951903;29;20535;-73
2022/03/18 12:42:52;;;;;;;12.85;5.13;;;;;;;;;;4937528;29;20698;-73
2022/03/18 12:45:29;;;;;;;12.88;5.07;;;;;;;;;;4950168;29;20050;-73
2022/03/18 12:48:02;;;;;;;11.82;5.22;;;;;;;;;;4951412;29;20130;-74
2022/03/18 12:50:30;;;;;;;11.43;5.80;;;;;;;;;;4950651;29;20083;-74
2022/03/18 12:52:56;;;;;;;12.02;6.07;;;;;;;;;;4952078;29;20051;-73
2022/03/18 12:55:24;;;;;;;11.63;5.43;;;;;;;;;;4948321;29;20085;-73
2022/03/18 12:57:50;;;;;;;11.55;5.65;;;;;;;;;;4951192;29;20055;-73
2022/03/18 13:00:17;;;;;;;10.93;5.78;;;;;;;;;;4953754;29;20083;-73
2022/03/18 13:02:44;;;;;;;9.93;5.57;;;;;;;;;;4952744;29;20051;-73
2022/03/18 13:05:13;;;;;;;12.20;5.53;;;;;;;;;;4952422;29;20813;-73
2022/03/18 13:07:39;;;;;;;11.15;4.80;;;;;;;;;;4948266;28;20071;-74
2022/03/18 13:10:05;;;;;;;15.05;5.57;;;;;;;;;;4927228;29;20106;-74
2022/03/18 13:12:35;;;;;;;13.07;6.80;;;;;;;;;;4949202;29;20043;-74
2022/03/18 13:15:12;;;;;;;14.75;7.43;;;;;;;;;;4949332;29;20059;-74
2022/03/18 13:17:38;;;;;;;15.15;7.13;;;;;;;;;;4949063;29;20384;-73
2022/03/18 13:20:04;;;;;;;11.82;6.90;;;;;;;;;;4953108;29;20043;-74
2022/03/18 13:22:30;;;;;;;16.98;6.78;;;;;;;;;;4939680;29;20039;-74
2022/03/18 13:24:59;;;;;;;13.30;7.07;;;;;;;;;;4948194;29;20048;-74
2022/03/18 13:27:25;;;;;;;17.77;8.85;;;;;;;;;;4947149;29;20450;-74
2022/03/18 13:32:50;;;;;;;12.57;6.72;;;;;;;;;;4949852;29;20051;-74
2022/03/18 13:35:16;;;;;;;12.40;6.70;;;;;;;;;;4952463;29;20040;-74
2022/03/18 13:37:42;;;;;;;13.05;6.07;;;;;;;;;;4952794;29;20087;-74
2022/03/18 13:40:15;;;;;;;13.30;5.75;;;;;;;;;;4951128;29;21781;-74
2022/03/18 13:42:42;;;;;;;11.05;5.20;;;;;;;;;;4943437;29;20604;-74
2022/03/18 13:45:09;;;;;;;12.95;5.18;;;;;;;;;;4951886;29;20049;-73
2022/03/18 13:47:45;;;;;;;11.73;5.47;;;;;;;;;;4949412;29;20043;-73
2022/03/18 13:50:14;;;;;;;13.48;5.18;;;;;;;;;;4962212;23;20035;-77
2022/03/18 13:52:40;;;;;;;11.00;5.28;;;;;;;;;;4941000;28;20105;-78
2022/03/18 13:55:06;;;;;;;15.00;4.93;;;;;;;;;;4940582;28;20038;-77
2022/03/18 13:57:48;;;;;;;13.15;4.70;;;;;;;;;;4954530;28;20035;-77
2022/03/18 14:00:27;;;;;;;13.68;4.90;;;;;;;;;;4954314;28;20034;-77
2022/03/18 14:03:02;;;;;;;16.98;5.45;;;;;;;;;;4954266;28;20034;-77
2022/03/18 14:05:28;;;;;;;11.27;4.95;;;;;;;;;;4955452;28;20053;-77
2022/03/18 14:07:54;;;;;;;12.32;4.45;;;;;;;;;;4953428;28;20551;-77
2022/03/18 14:10:20;;;;;;;14.52;4.63;;;;;;;;;;4954989;28;20057;-78
2022/03/18 14:13:09;;;;;;;12.90;4.43;;;;;;;;;;4955162;28;20050;-77
2022/03/18 14:15:44;;;;;;;11.93;4.82;;;;;;;;;;4938656;28;20404;-77
2022/03/18 14:18:11;;;;;;;10.30;4.50;;;;;;;;;;4951408;28;20605;-77
2022/03/18 14:20:53;;;;;;;11.07;5.10;;;;;;;;;;4954355;28;20037;-76
2022/03/18 14:23:22;;;;;;;12.18;5.68;;;;;;;;;;4955437;28;20131;-77
2022/03/18 14:25:48;;;;;;;13.48;4.75;;;;;;;;;;4951283;28;20049;-76
2022/03/18 14:28:17;;;;;;;13.02;4.63;;;;;;;;;;4939228;28;20125;-77
2022/03/18 14:30:43;;;;;;;13.00;5.97;;;;;;;;;;4955060;28;20046;-76
2022/03/18 14:33:09;;;;;;;14.88;5.97;;;;;;;;;;4960631;28;20046;-77
2022/03/18 14:35:36;;;;;;;12.93;6.35;;;;;;;;;;4955009;28;20129;-76
2022/03/18 14:38:03;;;;;;;19.08;6.82;;;;;;;;;;4954880;28;20209;-76
2022/03/18 14:40:29;;;;;;;14.70;5.65;;;;;;;;;;4953848;28;20079;-77
2022/03/18 14:42:55;;;;;;;15.05;4.82;;;;;;;;;;4948869;28;20153;-77
2022/03/18 14:45:21;;;;;;;12.93;5.75;;;;;;;;;;4939232;28;20057;-77
2022/03/18 14:47:47;;;;;;;17.10;5.63;;;;;;;;;;4938930;28;20129;-78
2022/03/18 14:50:14;;;;;;;12.35;4.30;;;;;;;;;;4939498;28;20052;-77
2022/03/18 14:52:40;;;;;;;15.57;4.68;;;;;;;;;;4948179;29;20047;-77
2022/03/18 14:57:52;;;;;;;11.25;4.20;;;;;;;;;;4952097;28;20051;-77
2022/03/18 15:00:19;;;;;;;16.15;4.20;;;;;;;;;;4954948;28;20039;-77
2022/03/18 15:02:45;;;;;;;9.23;3.78;;;;;;;;;;4955262;28;20752;-78